createdAt,value
2022-08-05T00:00:46.473Z,23.63
2022-08-05T00:03:18.492Z,23.58
2022-08-05T00:06:05.553Z,23.92
2022-08-05T00:08:36.868Z,23.94
2022-08-05T00:11:20.526Z,24.14
2022-08-05T00:13:52.985Z,23.71
2022-08-05T00:16:35.290Z,23.75
2022-08-05T00:19:04.417Z,23.65
2022-08-05T00:21:35.654Z,23.97
2022-08-05T00:24:09.860Z,23.61
2022-08-05T00:26:39.552Z,23.49
2022-08-05T00:29:18.991Z,23.34
2022-08-05T00:32:10.562Z,23.61
2022-08-05T00:34:55.633Z,23.73
2022-08-05T00:37:50.449Z,23.88
2022-08-05T00:40:27.526Z,23.46
2022-08-05T00:42:58.832Z,23.52
2022-08-05T00:45:38.695Z,23.38
2022-08-05T00:48:12.316Z,23.49
2022-08-05T00:50:41.266Z,23.62
2022-08-05T00:54:00.276Z,23.73
2022-08-05T00:56:01.796Z,23.26
2022-08-05T00:58:30.037Z,23.24
2022-08-05T01:00:58.180Z,23.19
2022-08-05T01:03:33.263Z,23.41
2022-08-05T01:06:05.385Z,23.39
2022-08-05T01:08:43.355Z,24.30
2022-08-05T01:11:22.550Z,23.48
2022-08-05T01:14:08.503Z,23.77
2022-08-05T01:16:44.200Z,23.79
2022-08-05T01:19:56.319Z,23.84
2022-08-05T01:22:31.719Z,23.96
2022-08-05T01:25:39.663Z,23.99
2022-08-05T01:28:25.956Z,23.91
2022-08-05T01:30:55.876Z,23.48
2022-08-05T01:33:26.335Z,23.58
2022-08-05T01:35:57.571Z,23.50
2022-08-05T01:38:29.273Z,23.50
2022-08-05T01:41:01.290Z,23.23
2022-08-05T01:43:31.951Z,23.19
2022-08-05T01:46:07.526Z,22.93
2022-08-05T01:48:49.704Z,23.10
2022-08-05T01:51:19.177Z,22.91
2022-08-05T01:53:58.047Z,22.93
2022-08-05T01:58:11.649Z,22.96
2022-08-05T01:59:23.350Z,23.00
2022-08-05T02:01:55.495Z,22.77
2022-08-05T02:04:25.522Z,22.69
2022-08-05T02:06:53.745Z,22.42
2022-08-05T02:09:21.965Z,22.43
2022-08-05T02:11:56.868Z,22.93
2022-08-05T02:14:31.841Z,22.91
2022-08-05T02:17:04.300Z,23.09
2022-08-05T02:19:35.827Z,23.06
2022-08-05T02:22:25.677Z,23.10
2022-08-05T02:25:00.040Z,23.10
2022-08-05T02:27:58.224Z,22.93
2022-08-05T02:30:20.166Z,22.93
2022-08-05T02:32:55.636Z,23.39
2022-08-05T02:35:28.336Z,22.69
2022-08-05T02:38:09.432Z,22.62
2022-08-05T02:40:39.043Z,22.74
2022-08-05T02:43:08.191Z,22.52
2022-08-05T02:45:52.331Z,22.94
2022-08-05T02:48:29.559Z,22.80
2022-08-05T02:51:00.154Z,22.99
2022-08-05T02:53:29.262Z,22.81
2022-08-05T02:56:15.721Z,23.03
2022-08-05T02:58:45.256Z,22.81
2022-08-05T03:01:24.891Z,23.09
2022-08-05T03:04:02.811Z,22.95
2022-08-05T03:06:56.816Z,22.60
2022-08-05T03:09:36.445Z,22.55
2022-08-05T03:12:08.033Z,22.55
2022-08-05T03:14:45.774Z,22.31
2022-08-05T03:17:15.751Z,22.69
2022-08-05T03:19:45.775Z,22.33
2022-08-05T03:22:32.011Z,22.33
2022-08-05T03:25:11.556Z,22.46
2022-08-05T03:27:59.380Z,22.33
2022-08-05T03:30:34.208Z,22.52
2022-08-05T03:33:05.828Z,22.66
2022-08-05T03:35:41.092Z,22.35
2022-08-05T03:38:14.378Z,22.66
2022-08-05T03:40:45.046Z,22.48
2022-08-05T03:44:09.068Z,22.51
2022-08-05T03:46:08.321Z,22.74
2022-08-05T03:48:37.981Z,22.96
2022-08-05T03:52:38.008Z,23.31
2022-08-05T03:55:49.881Z,23.37
2022-08-05T03:56:53.953Z,23.02
2022-08-05T03:59:24.987Z,23.30
2022-08-05T04:01:58.631Z,23.45
2022-08-05T04:04:29.515Z,23.55
2022-08-05T04:06:57.720Z,23.29
2022-08-05T04:09:26.799Z,23.36
2022-08-05T04:11:56.867Z,23.40
2022-08-05T04:14:29.800Z,23.49
2022-08-05T04:17:02.877Z,23.73
2022-08-05T04:19:32.565Z,23.81
2022-08-05T04:22:08.747Z,23.73
2022-08-05T04:24:44.005Z,24.04
2022-08-05T04:27:14.081Z,24.25
2022-08-05T04:29:43.533Z,24.50
2022-08-05T04:32:12.010Z,24.88
2022-08-05T04:34:43.273Z,25.49
2022-08-05T04:37:12.788Z,25.45
2022-08-05T04:39:41.009Z,25.66
2022-08-05T04:42:10.475Z,26.14
2022-08-05T04:44:39.856Z,26.14
2022-08-05T04:47:09.345Z,26.24
2022-08-05T04:50:02.046Z,26.87
2022-08-05T04:52:29.154Z,27.54
2022-08-05T04:55:14.016Z,27.70
2022-08-05T04:57:47.771Z,28.18
2022-08-05T05:00:17.510Z,28.14
2022-08-05T05:02:45.688Z,28.07
2022-08-05T05:05:26.296Z,28.34
2022-08-05T05:08:02.412Z,29.26
2022-08-05T05:10:33.222Z,29.14
2022-08-05T05:13:03.883Z,30.55
2022-08-05T05:15:57.004Z,29.93
2022-08-05T05:18:31.573Z,29.59
2022-08-05T05:21:03.457Z,29.66
2022-08-05T05:24:02.475Z,29.67
2022-08-05T05:26:28.571Z,29.75
2022-08-05T05:29:02.667Z,30.19
2022-08-05T05:31:42.363Z,30.08
2022-08-05T05:34:15.503Z,30.44
2022-08-05T05:36:44.344Z,31.09
2022-08-05T05:39:19.129Z,32.77
2022-08-05T05:41:54.532Z,31.60
2022-08-05T05:44:36.105Z,31.96
2022-08-05T05:47:21.405Z,33.09
2022-08-05T05:49:56.487Z,33.29
2022-08-05T05:52:28.300Z,33.21
2022-08-05T05:55:01.964Z,32.91
2022-08-05T05:57:52.175Z,32.37
2022-08-05T06:00:27.818Z,32.96
2022-08-05T06:03:02.945Z,33.07
2022-08-05T06:05:32.010Z,33.06
2022-08-05T06:08:01.906Z,33.58
2022-08-05T06:10:36.699Z,34.71
2022-08-05T06:13:17.589Z,34.54
2022-08-05T06:16:29.589Z,34.43
2022-08-05T06:18:36.492Z,34.56
2022-08-05T06:21:07.900Z,35.03
2022-08-05T06:23:45.151Z,35.31
2022-08-05T06:26:21.502Z,36.37
2022-08-05T06:28:52.382Z,36.25
2022-08-05T06:31:22.039Z,37.31
2022-08-05T06:34:07.971Z,38.58
2022-08-05T06:36:57.979Z,39.66
2022-08-05T06:39:27.609Z,40.39
2022-08-05T06:42:01.403Z,40.17
2022-08-05T06:44:32.483Z,40.08
2022-08-05T06:47:02.423Z,40.49
2022-08-05T06:50:01.475Z,40.35
2022-08-05T06:52:36.701Z,40.89
2022-08-05T06:55:06.773Z,40.90
2022-08-05T06:57:57.378Z,40.94
2022-08-05T07:00:25.503Z,41.43
2022-08-05T07:02:54.606Z,43.07
2022-08-05T07:05:36.930Z,43.63
2022-08-05T07:08:10.027Z,44.12
2022-08-05T07:10:39.405Z,44.12
2022-08-05T07:13:57.989Z,44.69
2022-08-05T07:18:08.755Z,43.16
2022-08-05T07:22:27.912Z,44.96
2022-08-05T07:24:59.701Z,47.14
2022-08-05T07:27:58.853Z,48.36
2022-08-05T07:30:38.840Z,48.79
2022-08-05T07:33:09.178Z,48.59
2022-08-05T07:36:02.518Z,49.81
2022-08-05T07:38:34.292Z,50.80
2022-08-05T07:42:07.697Z,51.50
2022-08-05T07:43:55.080Z,51.14
2022-08-05T07:46:27.750Z,50.90
2022-08-05T07:49:02.217Z,50.61
2022-08-05T07:51:36.714Z,50.82
2022-08-05T07:54:10.002Z,51.30
2022-08-05T07:57:01.810Z,51.56
2022-08-05T07:59:30.983Z,51.29
2022-08-05T08:02:15.968Z,52.63
2022-08-05T08:04:46.644Z,53.63
2022-08-05T08:07:15.622Z,54.10
2022-08-05T08:09:44.278Z,54.70
2022-08-05T08:12:36.873Z,54.42
2022-08-05T08:15:03.433Z,55.01
2022-08-05T08:17:35.392Z,54.86
2022-08-05T08:20:42.449Z,55.59
2022-08-05T08:22:55.595Z,56.27
2022-08-05T08:25:26.771Z,55.61
2022-08-05T08:28:18.402Z,55.93
2022-08-05T08:30:49.927Z,54.22
2022-08-05T08:33:21.377Z,54.93
2022-08-05T08:35:52.828Z,55.94
2022-08-05T08:38:32.214Z,56.92
2022-08-05T08:41:06.955Z,58.02
2022-08-05T08:45:18.559Z,58.02
2022-08-05T08:46:25.971Z,58.96
2022-08-05T08:49:07.918Z,60.88
2022-08-05T08:52:03.695Z,61.17
2022-08-05T08:54:33.056Z,61.39
2022-08-05T08:57:01.256Z,62.70
2022-08-05T08:59:33.619Z,61.45
2022-08-05T09:02:02.462Z,61.32
2022-08-05T09:04:32.036Z,62.13
2022-08-05T09:07:00.173Z,62.53
2022-08-05T09:09:34.885Z,64.02
2022-08-05T09:12:19.961Z,63.43
2022-08-05T09:14:58.095Z,63.62
2022-08-05T09:17:43.016Z,64.14
2022-08-05T09:20:20.821Z,64.54
2022-08-05T09:23:09.153Z,65.00
2022-08-05T09:26:02.374Z,65.04
2022-08-05T09:28:32.462Z,65.66
2022-08-05T09:31:23.553Z,66.36
2022-08-05T09:33:56.611Z,66.58
2022-08-05T09:36:54.036Z,66.64
2022-08-05T09:39:39.196Z,65.11
2022-08-05T09:42:23.289Z,64.88
2022-08-05T09:44:57.200Z,64.28
2022-08-05T09:47:48.074Z,64.38
2022-08-05T09:50:37.586Z,65.71
2022-08-05T09:53:12.047Z,66.53
2022-08-05T09:56:04.621Z,66.91
2022-08-05T09:58:33.573Z,66.51
2022-08-05T10:01:14.995Z,66.80
2022-08-05T10:03:58.630Z,65.01
2022-08-05T10:06:28.451Z,63.76
2022-08-05T10:09:25.129Z,64.41
2022-08-05T10:12:18.698Z,64.77
2022-08-05T10:15:16.205Z,65.32
2022-08-05T10:17:56.697Z,66.10
2022-08-05T10:20:26.779Z,67.12
2022-08-05T10:22:56.187Z,67.49
2022-08-05T10:25:28.508Z,67.10
2022-08-05T10:28:13.250Z,66.98
2022-08-05T10:32:54.222Z,66.98
2022-08-05T10:33:36.319Z,67.57
2022-08-05T10:36:05.907Z,67.22
2022-08-05T10:38:36.091Z,67.03
2022-08-05T10:41:12.451Z,66.89
2022-08-05T10:43:45.245Z,67.78
2022-08-05T10:46:14.733Z,67.79
2022-08-05T10:48:56.535Z,68.56
2022-08-05T10:51:28.860Z,68.96
2022-08-05T10:54:01.067Z,69.65
2022-08-05T10:56:32.719Z,70.50
2022-08-05T10:59:12.616Z,69.88
2022-08-05T11:02:14.023Z,67.72
2022-08-05T11:04:47.305Z,65.47
2022-08-05T11:07:18.651Z,62.27
2022-08-05T11:10:11.965Z,61.85
2022-08-05T11:12:54.482Z,63.60
2022-08-05T11:16:00.622Z,65.20
2022-08-05T11:18:30.160Z,65.61
2022-08-05T11:21:00.707Z,63.92
2022-08-05T11:24:04.387Z,64.01
2022-08-05T11:26:28.926Z,62.28
2022-08-05T11:29:12.788Z,61.08
2022-08-05T11:31:58.205Z,58.44
2022-08-05T11:34:52.095Z,57.11
2022-08-05T11:38:26.147Z,56.12
2022-08-05T11:41:03.609Z,53.95
2022-08-05T11:44:00.760Z,51.77
2022-08-05T11:46:37.841Z,49.44
2022-08-05T11:49:25.808Z,46.73
2022-08-05T11:51:54.634Z,45.22
2022-08-05T11:54:33.214Z,44.36
2022-08-05T11:57:08.560Z,43.93
2022-08-05T11:59:52.387Z,43.97
2022-08-05T12:02:30.195Z,42.56
2022-08-05T12:05:01.374Z,41.30
2022-08-05T12:08:07.900Z,40.59
2022-08-05T12:10:43.839Z,39.68
2022-08-05T12:13:47.712Z,39.20
2022-08-05T12:16:14.173Z,38.97
2022-08-05T12:18:49.608Z,38.95
2022-08-05T12:21:24.046Z,39.21
2022-08-05T12:24:11.111Z,39.79
2022-08-05T12:26:44.262Z,39.08
2022-08-05T12:29:17.769Z,38.87
2022-08-05T12:31:53.405Z,38.26
2022-08-05T12:34:28.553Z,38.13
2022-08-05T12:36:58.511Z,37.61
2022-08-05T12:39:34.407Z,37.90
2022-08-05T12:42:14.842Z,38.51
2022-08-05T12:44:44.691Z,38.28
2022-08-05T12:47:13.376Z,38.61
2022-08-05T12:50:03.969Z,38.99
2022-08-05T12:52:39.530Z,38.26
2022-08-05T12:55:22.922Z,38.33
2022-08-05T12:58:51.533Z,37.79
2022-08-05T13:02:00.765Z,37.94
2022-08-05T13:03:42.410Z,37.78
2022-08-05T13:06:19.779Z,37.87
2022-08-05T13:08:51.536Z,37.71
2022-08-05T13:11:25.594Z,37.81
2022-08-05T13:14:20.115Z,38.16
2022-08-05T13:16:53.866Z,37.84
2022-08-05T13:19:26.501Z,37.93
2022-08-05T13:21:56.884Z,37.90
2022-08-05T13:24:44.864Z,37.40
2022-08-05T13:27:16.911Z,37.34
2022-08-05T13:30:32.517Z,37.75
2022-08-05T13:32:42.261Z,38.26
2022-08-05T13:35:22.215Z,37.90
2022-08-05T13:37:56.156Z,37.53
2022-08-05T13:40:37.043Z,37.37
2022-08-05T13:43:13.745Z,37.25
2022-08-05T13:45:50.690Z,36.89
2022-08-05T13:48:58.711Z,36.59
2022-08-05T13:51:09.506Z,36.60
2022-08-05T13:53:47.819Z,37.16
2022-08-05T13:56:18.008Z,37.16
2022-08-05T13:58:53.216Z,37.25
2022-08-05T14:01:27.495Z,37.65
2022-08-05T14:04:49.529Z,37.81
2022-08-05T14:07:26.113Z,38.11
2022-08-05T14:10:11.985Z,38.17
2022-08-05T14:12:42.843Z,37.91
2022-08-05T14:16:04.634Z,38.07
2022-08-05T14:18:15.074Z,38.63
2022-08-05T14:20:48.477Z,38.24
2022-08-05T14:23:19.210Z,38.11
2022-08-05T14:25:59.116Z,38.37
2022-08-05T14:28:28.800Z,38.22
2022-08-05T14:30:57.465Z,38.20
2022-08-05T14:33:25.669Z,38.28
2022-08-05T14:35:54.341Z,38.29
2022-08-05T14:38:32.816Z,38.20
2022-08-05T14:41:07.796Z,38.59
2022-08-05T14:43:53.977Z,38.34
2022-08-05T14:46:29.110Z,38.23
2022-08-05T14:48:59.691Z,38.27
2022-08-05T14:51:35.734Z,38.21
2022-08-05T14:54:27.800Z,38.19
2022-08-05T14:56:54.604Z,38.47
2022-08-05T14:59:23.387Z,38.11
2022-08-05T15:01:51.460Z,38.14
2022-08-05T15:04:22.537Z,39.25
2022-08-05T15:06:52.641Z,38.13
2022-08-05T15:09:52.534Z,38.13
2022-08-05T15:12:16.714Z,38.30
2022-08-05T15:14:49.940Z,37.99
2022-08-05T15:17:47.374Z,38.07
2022-08-05T15:20:17.027Z,38.16
2022-08-05T15:22:52.204Z,38.13
2022-08-05T15:25:23.292Z,37.77
2022-08-05T15:28:14.438Z,38.08
2022-08-05T15:30:43.750Z,37.76
2022-08-05T15:33:53.717Z,37.74
2022-08-05T15:36:04.051Z,37.79
2022-08-05T15:38:40.942Z,37.80
2022-08-05T15:41:22.917Z,37.57
2022-08-05T15:43:55.226Z,37.93
2022-08-05T15:46:24.743Z,37.59
2022-08-05T15:48:58.530Z,37.77
2022-08-05T15:52:13.348Z,37.61
2022-08-05T15:54:19.072Z,37.38
2022-08-05T15:56:47.527Z,37.47
2022-08-05T15:59:19.984Z,37.63
2022-08-05T16:01:52.885Z,37.45
2022-08-05T16:04:25.761Z,38.34
2022-08-05T16:06:55.813Z,37.38
2022-08-05T16:09:24.899Z,37.28
2022-08-05T16:11:54.030Z,37.15
2022-08-05T16:14:24.639Z,37.56
2022-08-05T16:16:53.833Z,37.19
2022-08-05T16:20:04.151Z,37.34
2022-08-05T16:22:11.071Z,37.28
2022-08-05T16:24:51.700Z,37.28
2022-08-05T16:27:46.821Z,37.05
2022-08-05T16:30:23.321Z,37.45
2022-08-05T16:32:55.703Z,37.01
2022-08-05T16:35:28.046Z,37.03
2022-08-05T16:38:10.440Z,36.96
2022-08-05T16:40:48.086Z,36.86
2022-08-05T16:43:24.378Z,36.89
2022-08-05T16:46:06.331Z,37.18
2022-08-05T16:48:37.806Z,36.89
2022-08-05T16:51:09.136Z,36.87
2022-08-05T16:54:03.991Z,36.74
2022-08-05T16:56:31.080Z,36.75
2022-08-05T16:59:00.336Z,36.55
2022-08-05T17:01:31.810Z,37.56
2022-08-05T17:04:20.078Z,36.31
2022-08-05T17:06:53.484Z,36.22
2022-08-05T17:09:22.898Z,36.16
2022-08-05T17:11:56.067Z,36.09
2022-08-05T17:14:36.773Z,36.24
2022-08-05T17:17:09.281Z,36.15
2022-08-05T17:19:45.333Z,35.84
2022-08-05T17:22:17.709Z,35.94
2022-08-05T17:24:57.467Z,35.69
2022-08-05T17:27:33.854Z,35.77
2022-08-05T17:30:04.754Z,35.70
2022-08-05T17:32:42.372Z,35.71
2022-08-05T17:35:12.348Z,35.51
2022-08-05T17:37:45.218Z,35.25
2022-08-05T17:40:17.224Z,35.48
2022-08-05T17:42:52.066Z,35.11
2022-08-05T17:45:23.044Z,35.06
2022-08-05T17:47:55.415Z,35.18
2022-08-05T17:50:28.638Z,34.83
2022-08-05T17:53:00.275Z,34.78
2022-08-05T17:55:37.768Z,34.67
2022-08-05T17:58:09.666Z,34.54
2022-08-05T18:00:40.789Z,34.54
2022-08-05T18:03:24.136Z,34.72
2022-08-05T18:06:04.712Z,34.41
2022-08-05T18:08:34.074Z,34.50
2022-08-05T18:11:03.207Z,34.50
2022-08-05T18:13:36.858Z,34.29
2022-08-05T18:16:13.518Z,34.12
2022-08-05T18:18:47.776Z,34.43
2022-08-05T18:21:19.926Z,34.03
2022-08-05T18:23:53.630Z,33.91
2022-08-05T18:26:27.593Z,33.98
2022-08-05T18:28:58.117Z,33.92
2022-08-05T18:31:33.903Z,33.95
2022-08-05T18:34:06.433Z,34.19
2022-08-05T18:36:41.479Z,33.88
2022-08-05T18:39:42.021Z,33.73
2022-08-05T18:42:07.625Z,33.66
2022-08-05T18:44:51.714Z,33.60
2022-08-05T18:47:26.818Z,33.61
2022-08-05T18:50:15.759Z,34.44
2022-08-05T18:52:51.199Z,33.34
2022-08-05T18:55:23.752Z,32.98
2022-08-05T18:57:54.088Z,32.72
2022-08-05T19:00:31.857Z,32.63
2022-08-05T19:03:04.157Z,32.58
2022-08-05T19:06:11.443Z,32.54
2022-08-05T19:08:30.252Z,32.27
2022-08-05T19:11:04.629Z,32.06
2022-08-05T19:13:36.957Z,32.13
2022-08-05T19:16:24.928Z,31.92
2022-08-05T19:18:56.827Z,31.87
2022-08-05T19:21:34.265Z,32.14
2022-08-05T19:24:06.718Z,31.76
2022-08-05T19:26:43.961Z,31.90
2022-08-05T19:29:26.540Z,32.02
2022-08-05T19:32:04.637Z,31.73
2022-08-05T19:34:32.842Z,31.54
2022-08-05T19:37:02.533Z,31.99
2022-08-05T19:39:32.115Z,31.59
2022-08-05T19:42:15.307Z,31.51
2022-08-05T19:44:44.951Z,31.48
2022-08-05T19:47:16.298Z,31.56
2022-08-05T19:49:46.010Z,31.49
2022-08-05T19:52:31.067Z,31.60
2022-08-05T19:55:07.229Z,31.36
2022-08-05T19:58:14.434Z,31.32
2022-08-05T20:00:38.961Z,31.14
2022-08-05T20:03:09.149Z,31.01
2022-08-05T20:05:43.386Z,30.98
2022-08-05T20:08:20.834Z,31.22
2022-08-05T20:10:53.470Z,31.03
2022-08-05T20:13:54.435Z,30.87
2022-08-05T20:16:11.173Z,30.80
2022-08-05T20:18:40.357Z,30.72
2022-08-05T20:21:09.217Z,30.85
2022-08-05T20:23:50.192Z,31.10
2022-08-05T20:26:20.691Z,31.04
2022-08-05T20:28:51.130Z,31.20
2022-08-05T20:31:21.727Z,30.79
2022-08-05T20:33:51.780Z,30.80
2022-08-05T20:36:20.900Z,31.01
2022-08-05T20:38:54.644Z,31.23
2022-08-05T20:41:44.160Z,31.16
2022-08-05T20:44:19.204Z,30.96
2022-08-05T20:46:59.485Z,30.99
2022-08-05T20:49:27.898Z,30.83
2022-08-05T20:51:57.333Z,30.80
2022-08-05T20:54:42.694Z,31.12
2022-08-05T20:57:42.541Z,30.85
2022-08-05T21:00:19.638Z,31.00
2022-08-05T21:03:01.289Z,30.63
2022-08-05T21:05:47.776Z,30.43
2022-08-05T21:08:18.239Z,30.27
2022-08-05T21:10:49.053Z,30.51
2022-08-05T21:13:26.567Z,30.12
2022-08-05T21:16:07.646Z,30.25
2022-08-05T21:18:35.953Z,29.99
2022-08-05T21:21:04.148Z,29.84
2022-08-05T21:23:37.270Z,29.93
2022-08-05T21:26:14.311Z,30.13
2022-08-05T21:28:47.609Z,29.63
2022-08-05T21:31:18.892Z,29.46
2022-08-05T21:33:49.567Z,29.35
2022-08-05T21:36:19.147Z,29.20
2022-08-05T21:38:56.470Z,29.16
2022-08-05T21:41:26.116Z,29.37
2022-08-05T21:44:04.395Z,29.19
2022-08-05T21:46:34.461Z,28.97
2022-08-05T21:49:07.147Z,28.59
2022-08-05T21:52:28.153Z,28.57
2022-08-05T21:54:27.908Z,28.82
2022-08-05T21:57:31.185Z,28.90
2022-08-05T22:00:03.353Z,28.44
2022-08-05T22:02:33.874Z,28.55
2022-08-05T22:05:04.326Z,28.50
2022-08-05T22:07:40.521Z,28.66
2022-08-05T22:10:27.094Z,28.81
2022-08-05T22:12:59.033Z,29.24
2022-08-05T22:16:02.728Z,28.81
2022-08-05T22:18:25.785Z,28.81
2022-08-05T22:20:54.482Z,28.89
2022-08-05T22:24:02.034Z,28.81
2022-08-05T22:26:49.836Z,28.73
2022-08-05T22:29:26.718Z,28.93
2022-08-05T22:31:59.369Z,28.60
2022-08-05T22:34:31.249Z,28.66
2022-08-05T22:37:00.377Z,28.80
2022-08-05T22:39:33.399Z,28.70
2022-08-05T22:42:09.847Z,28.72
2022-08-05T22:44:48.482Z,28.70
2022-08-05T22:47:29.326Z,28.43
2022-08-05T22:50:20.636Z,28.61
2022-08-05T22:52:48.785Z,28.46
2022-08-05T22:55:19.274Z,28.38
2022-08-05T22:57:49.095Z,29.52
2022-08-05T23:00:21.210Z,28.82
2022-08-05T23:02:50.536Z,28.47
2022-08-05T23:05:19.387Z,28.41
2022-08-05T23:07:51.291Z,28.26
2022-08-05T23:10:20.851Z,28.17
2022-08-05T23:12:54.499Z,28.19
2022-08-05T23:15:28.976Z,28.50
2022-08-05T23:18:00.610Z,28.02
2022-08-05T23:20:32.077Z,27.79
2022-08-05T23:23:00.684Z,27.59
2022-08-05T23:25:51.448Z,27.62
2022-08-05T23:28:22.229Z,27.60
2022-08-05T23:30:54.755Z,28.04
2022-08-05T23:34:03.078Z,28.03
2022-08-05T23:36:13.840Z,27.83
2022-08-05T23:38:43.731Z,28.03
2022-08-05T23:41:12.819Z,27.86
2022-08-05T23:44:06.093Z,27.89
2022-08-05T23:46:31.677Z,28.02
2022-08-05T23:49:02.100Z,27.88
2022-08-05T23:52:02.192Z,27.88
2022-08-05T23:54:38.527Z,28.34
2022-08-05T23:57:07.703Z,28.05
